Overview Statistics Trail Chart Weather Telemetry Raw packets
 

This is the latest recevied weather packets stored in our database for station/object Seibranz. If no packets are shown the sender has not sent any weather packets the latest 10 day(s).

<< 10 11 12 13 14 15 16 >>
Time Temp. Humidity Pressure Rain* Wind** Luminosity Snow
1788035531 12.78° C 88% 1015.6 hPa 0.25 mm - - -
1788033731 13.33° C 87% 1015.6 hPa 0.25 mm - - -
1788031931 12.22° C 88% 1015.6 hPa 0.25 mm - - -
1788030132 13.89° C 84% 1015.3 hPa 0.25 mm - - -
1788028331 13.89° C 83% 1015 hPa 0.25 mm - - -
1788026531 17.22° C 76% 1014.9 hPa 0.25 mm - - -
1788024730 17.78° C 72% 1014.8 hPa 0.25 mm - - -
1788022930 18.89° C 69% 1014.9 hPa 0.25 mm - - -
1788021130 18.89° C 62% 1014.9 hPa 0.25 mm - - -
1788019330 21.67° C 60% 1015.1 hPa 0.25 mm - - -
1788017531 20° C 63% 1015.2 hPa 0.25 mm - - -
1788015731 20.56° C 62% 1015.1 hPa 0.25 mm - - -
1788013933 21.67° C 59% 1015.1 hPa 0.25 mm - - -
1788012130 21.67° C 62% 1015.3 hPa 0.25 mm - - -
1788010330 21.67° C 57% 1015.3 hPa 0.25 mm - - -
1788008530 21.11° C 59% 1015.6 hPa 0.25 mm - - -
1788006730 21.11° C 60% 1015.9 hPa 0.25 mm - - -
1788004930 20.56° C 66% 1016.1 hPa 0.25 mm - - -
1788003130 21.11° C 67% 1016.2 hPa 0.25 mm - - -
1788001329 20.56° C 66% 1016.5 hPa 0.25 mm - - -
1787999530 20° C 71% 1016.6 hPa 0.25 mm - - -
1787997730 19.44° C 72% 1016.8 hPa 0.25 mm - - -
1787995930 18.33° C 76% 1017 hPa 0.25 mm - - -
1787994130 17.78° C 80% 1016.9 hPa 0.25 mm - - -
1787992330 17.22° C 85% 1016.9 hPa 0.25 mm - - -

* Rain since midnight (hover to see other rain measurements)
** Current wind speed in m/s (hover to see current wind gust speed)